ERH weather

Moulay Ali Cherif Airport
Errachidia, Errachidia Province, Morocco

Public forecast

Using degrees Celsius for public forecast. Weather courtesy of forecast.io.

METAR (pilot weather report)

Retrieved 2019/09/19 03:00 UTC (7 minutes ago):

GMFK 190300Z 00000KT CAVOK 25/06 Q1018 NOSIG

TAF (pilot weather forecast)

Forecast is more than 12 hours old.

Retrieved 2019/09/18 00:00 UTC (1 day ago):

TAF GMFK 182300Z 1900/2006 34005KT 9999 FEW030 PROB40 TEMPO 1913/1920 08016KT 9999 TS SCT030 FEW033CB